Time;durP1;ratioP1;P1;durP2;ratioP2;P2;SDS_P1;SDS_P2;PMS_P1;PMS_P2;Temp;Humidity;BMP_temperature;BMP_pressure;BME280_temperature;BME280_humidity;BME280_pressure;Samples;Min_cycle;Max_cycle;Signal;HPM_P1;HPM_P2
2021/11/03 00:00:54;;;;;;;17.83;15.37;;;;;;;9.56;71.73;100050.94;6135590;28;20274;-62
2021/11/03 00:04:15;;;;;;;16.67;15.17;;;;;;;9.18;72.38;100055.88;6133735;28;20211;-64
2021/11/03 00:07:36;;;;;;;18.30;16.37;;;;;;;9.50;71.54;100054.50;6136990;28;20732;-63
2021/11/03 00:10:58;;;;;;;15.77;14.33;;;;;;;9.43;71.34;100050.28;6136770;28;20321;-62
2021/11/03 00:14:21;;;;;;;17.87;16.07;;;;;;;9.25;71.54;100043.66;6136337;28;20372;-62
2021/11/03 00:17:42;;;;;;;18.33;16.33;;;;;;;9.13;72.00;100043.84;6135555;28;20239;-63
2021/11/03 00:21:06;;;;;;;18.50;16.83;;;;;;;9.30;71.36;100046.16;6135407;28;20593;-63
2021/11/03 00:24:27;;;;;;;16.63;14.53;;;;;;;8.96;72.73;100042.34;6136383;28;20207;-63
2021/11/03 00:27:48;;;;;;;18.23;16.37;;;;;;;9.23;71.58;100046.28;6135850;28;20235;-62
2021/11/03 00:31:10;;;;;;;18.63;16.73;;;;;;;9.26;71.56;100046.22;6135097;28;20262;-63
2021/11/03 00:34:31;;;;;;;18.20;16.37;;;;;;;9.05;72.58;100046.53;6136842;29;20208;-63
2021/11/03 00:37:52;;;;;;;17.87;16.27;;;;;;;8.70;74.05;100044.47;6136276;28;20239;-63
2021/11/03 00:41:13;;;;;;;17.00;15.47;;;;;;;8.97;73.13;100045.81;6134334;28;20234;-63
2021/11/03 00:44:35;;;;;;;17.13;15.03;;;;;;;9.17;72.19;100043.78;6147793;28;20298;-63
2021/11/03 00:47:59;;;;;;;15.53;13.97;;;;;;;8.96;72.74;100046.69;6135231;28;20227;-63
2021/11/03 00:51:20;;;;;;;17.60;15.83;;;;;;;9.21;71.54;100045.44;6146823;28;20323;-64
2021/11/03 00:54:41;;;;;;;17.23;15.50;;;;;;;9.24;72.15;100042.78;6141561;28;20219;-63
2021/11/03 00:58:03;;;;;;;15.43;13.97;;;;;;;9.06;72.70;100043.09;6134621;28;20521;-62
2021/11/03 01:01:25;;;;;;;17.27;15.67;;;;;;;9.23;71.88;100045.44;6134232;28;20256;-62
2021/11/03 01:04:47;;;;;;;18.57;13.87;;;;;;;9.16;72.86;100042.03;6135581;28;20231;-62
2021/11/03 01:08:10;;;;;;;15.40;13.97;;;;;;;9.36;72.02;100041.72;6134272;28;20532;-62
2021/11/03 01:11:31;;;;;;;17.00;15.40;;;;;;;8.87;74.11;100038.13;6135107;28;20239;-62
2021/11/03 01:14:52;;;;;;;19.17;15.27;;;;;;;8.29;75.83;100044.94;6135378;28;20617;-62
2021/11/03 01:18:13;;;;;;;15.80;14.23;;;;;;;8.63;75.32;100038.50;6130921;28;20242;-63
2021/11/03 01:21:38;;;;;;;16.07;14.53;;;;;;;8.96;73.86;100031.97;6135059;28;20239;-62
2021/11/03 01:24:59;;;;;;;16.73;14.70;;;;;;;8.83;74.27;100035.63;6134020;28;20200;-62
2021/11/03 01:28:20;;;;;;;15.87;14.47;;;;;;;8.40;75.69;100034.44;6134358;28;20239;-63
2021/11/03 01:31:42;;;;;;;15.17;13.77;;;;;;;8.95;74.42;100034.59;6133959;28;20234;-63
2021/11/03 01:35:04;;;;;;;14.27;12.87;;;;;;;8.98;73.42;100026.75;6135983;29;20239;-63
2021/11/03 01:38:27;;;;;;;15.00;13.53;;;;;;;9.03;73.31;100027.53;6135257;28;20809;-62
2021/11/03 01:41:48;;;;;;;16.50;14.77;;;;;;;8.73;74.38;100032.31;6135683;28;20235;-63
2021/11/03 01:45:11;;;;;;;16.23;14.57;;;;;;;8.14;76.25;100028.69;6146458;28;20461;-63
2021/11/03 01:48:31;;;;;;;17.27;15.60;;;;;;;8.47;75.17;100020.53;6134539;28;21435;-63
2021/11/03 01:51:59;;;;;;;14.70;13.23;;;;;;;8.80;74.12;100020.97;6136194;28;20238;-62
2021/11/03 01:55:23;;;;;;;17.37;15.07;;;;;;;8.79;73.45;100019.22;6135889;28;20192;-63
2021/11/03 01:58:49;;;;;;;15.27;13.67;;;;;;;8.51;75.07;100023.97;6137231;29;20223;-62
2021/11/03 02:02:11;;;;;;;14.90;13.27;;;;;;;8.73;74.67;100023.66;6151827;28;20542;-63
2021/11/03 02:05:32;;;;;;;13.77;12.53;;;;;;;8.88;73.95;100023.44;6139547;28;20207;-63
2021/11/03 02:08:55;;;;;;;14.97;11.90;;;;;;;8.87;74.21;100025.16;6135882;29;20323;-63
2021/11/03 02:12:22;;;;;;;14.60;13.00;;;;;;;8.53;74.17;100021.31;6137221;28;20262;-63
2021/11/03 02:15:45;;;;;;;15.50;13.90;;;;;;;8.12;76.33;100020.91;6136880;28;20318;-63
2021/11/03 02:19:11;;;;;;;15.97;13.40;;;;;;;8.40;75.33;100028.41;6136178;29;20669;-62
2021/11/03 02:22:37;;;;;;;13.20;11.90;;;;;;;8.25;76.63;100032.03;6137646;28;20235;-62
2021/11/03 02:26:05;;;;;;;12.90;11.57;;;;;;;8.35;75.99;100019.78;6151486;28;20700;-62
2021/11/03 02:29:26;;;;;;;13.27;12.07;;;;;;;8.27;75.82;100025.06;6138174;28;20207;-62
2021/11/03 02:32:53;;;;;;;13.50;12.17;;;;;;;8.40;75.80;100021.47;6138827;28;20231;-62
2021/11/03 02:36:14;;;;;;;12.57;11.47;;;;;;;8.85;74.06;100029.53;6138671;28;20242;-63
2021/11/03 02:39:40;;;;;;;12.90;11.70;;;;;;;8.83;73.49;100020.03;6133146;28;20203;-62
2021/11/03 02:43:08;;;;;;;15.23;13.63;;;;;;;8.98;74.38;100021.56;6152168;28;20256;-63
2021/11/03 02:46:29;;;;;;;13.83;12.50;;;;;;;8.47;74.32;100017.94;6134765;28;20235;-63
2021/11/03 02:49:51;;;;;;;13.40;12.07;;;;;;;8.64;75.08;100016.84;6137960;28;20217;-62
2021/11/03 02:53:12;;;;;;;13.40;11.97;;;;;;;8.78;74.64;100021.84;6138819;28;20310;-62
2021/11/03 02:56:36;;;;;;;14.40;12.63;;;;;;;8.79;74.49;100024.41;6138459;28;20330;-62
2021/11/03 02:59:59;;;;;;;12.67;11.47;;;;;;;8.93;74.21;100026.81;6138945;29;20195;-62
2021/11/03 03:03:20;;;;;;;12.53;11.33;;;;;;;9.24;72.57;100019.41;6137496;28;20634;-62
2021/11/03 03:06:42;;;;;;;12.93;10.87;;;;;;;9.27;72.77;100021.09;6142241;28;20231;-63
2021/11/03 03:10:04;;;;;;;12.47;11.37;;;;;;;9.51;71.60;100024.16;6138076;28;20200;-62
2021/11/03 03:13:25;;;;;;;11.63;10.47;;;;;;;9.23;71.71;100025.50;6138371;28;20227;-63
2021/11/03 03:16:47;;;;;;;13.40;11.80;;;;;;;8.69;74.29;100025.44;6141615;28;20239;-62
2021/11/03 03:20:11;;;;;;;13.40;12.20;;;;;;;9.13;73.33;100029.13;6136165;29;21341;-62
2021/11/03 03:23:32;;;;;;;12.33;11.23;;;;;;;9.02;73.21;100034.47;6150511;28;20231;-62
2021/11/03 03:26:53;;;;;;;13.03;11.73;;;;;;;8.35;75.00;100036.22;6139925;28;20227;-63
2021/11/03 03:30:15;;;;;;;14.10;12.60;;;;;;;8.92;74.52;100035.50;6136704;29;20195;-63
2021/11/03 03:33:38;;;;;;;12.57;11.37;;;;;;;8.99;73.63;100036.25;6136601;28;20231;-64
2021/11/03 03:36:59;;;;;;;12.47;11.37;;;;;;;8.64;73.83;100030.69;6135910;28;20231;-63
2021/11/03 03:40:24;;;;;;;12.27;11.10;;;;;;;8.46;74.46;100039.56;6135759;28;20238;-63
2021/11/03 03:43:45;;;;;;;13.03;11.73;;;;;;;8.14;76.53;100033.88;6134686;28;20231;-63
2021/11/03 03:47:07;;;;;;;17.90;16.30;;;;;;;8.40;75.60;100042.22;6134635;28;20247;-63
2021/11/03 03:50:29;;;;;;;15.10;13.63;;;;;;;8.65;74.84;100036.75;6138025;29;20302;-63
2021/11/03 03:53:51;;;;;;;13.20;11.93;;;;;;;8.40;75.08;100037.03;6149122;28;20600;-63
2021/11/03 03:57:16;;;;;;;12.73;11.53;;;;;;;8.24;75.61;100038.09;6135780;28;20239;-63
2021/11/03 04:00:37;;;;;;;12.27;11.07;;;;;;;7.96;76.71;100046.19;6139494;28;20212;-62
2021/11/03 04:03:58;;;;;;;12.87;11.43;;;;;;;8.21;75.74;100043.31;6138691;28;20203;-62
2021/11/03 04:07:20;;;;;;;11.50;10.30;;;;;;;8.45;74.84;100042.19;6134180;28;20235;-62
2021/11/03 04:10:43;;;;;;;12.47;11.17;;;;;;;8.03;76.51;100049.56;6140123;28;20814;-63
2021/11/03 04:14:05;;;;;;;12.27;11.07;;;;;;;7.94;77.07;100060.88;6137238;28;20677;-63
2021/11/03 04:17:26;;;;;;;13.13;11.73;;;;;;;8.54;75.04;100054.19;6139646;28;20227;-62
2021/11/03 04:20:48;;;;;;;12.50;10.77;;;;;;;8.83;73.95;100059.84;6134951;28;20211;-63
2021/11/03 04:24:11;;;;;;;11.87;10.80;;;;;;;8.75;73.48;100060.84;6134684;28;20289;-63
2021/11/03 04:27:32;;;;;;;12.77;11.43;;;;;;;8.63;74.00;100067.91;6147568;28;20238;-63
2021/11/03 04:30:53;;;;;;;11.20;10.03;;;;;;;8.38;74.67;100069.06;6136015;28;20607;-62
2021/11/03 04:34:15;;;;;;;12.43;11.23;;;;;;;8.40;74.57;100062.13;6136695;29;20208;-62
2021/11/03 04:37:37;;;;;;;11.57;10.57;;;;;;;7.97;75.99;100073.84;6134100;28;20326;-63
2021/11/03 04:40:59;;;;;;;12.20;10.93;;;;;;;8.02;76.26;100078.97;6135717;28;20316;-63
2021/11/03 04:44:21;;;;;;;10.90;9.80;;;;;;;8.07;75.93;100075.44;6134148;28;20207;-63
2021/11/03 04:47:42;;;;;;;10.07;9.10;;;;;;;7.87;76.47;100080.84;6139897;28;20239;-63
2021/11/03 04:51:06;;;;;;;12.07;10.80;;;;;;;8.15;75.73;100077.97;6135809;28;20585;-64
2021/11/03 04:54:27;;;;;;;11.33;10.23;;;;;;;8.22;76.09;100086.53;6135608;28;20211;-63
2021/11/03 04:57:51;;;;;;;11.47;10.30;;;;;;;8.34;75.55;100082.97;6135849;28;20258;-63
2021/11/03 05:01:12;;;;;;;11.07;10.17;;;;;;;7.93;76.81;100084.22;6134568;28;20884;-62
2021/11/03 05:04:32;;;;;;;12.07;10.10;;;;;;;7.84;77.74;100077.41;6136075;28;20215;-63
2021/11/03 05:07:54;;;;;;;11.43;10.37;;;;;;;7.99;77.15;100081.59;6132168;28;20231;-63
2021/11/03 05:11:17;;;;;;;11.37;10.23;;;;;;;7.99;77.11;100086.78;6139230;28;20231;-63
2021/11/03 05:14:39;;;;;;;12.37;11.07;;;;;;;8.03;77.49;100085.88;6134165;28;20705;-62
2021/11/03 05:18:01;;;;;;;13.40;10.43;;;;;;;7.64;78.45;100083.66;6135328;28;20242;-63
2021/11/03 05:21:23;;;;;;;11.03;10.03;;;;;;;7.96;78.11;100089.41;6131800;28;20234;-63
2021/11/03 05:24:46;;;;;;;15.77;12.10;;;;;;;7.99;77.58;100086.78;6136901;29;20215;-63
2021/11/03 05:28:07;;;;;;;12.33;11.20;;;;;;;7.82;77.63;100084.34;6132791;28;20262;-63
2021/11/03 05:31:30;;;;;;;13.87;12.43;;;;;;;7.75;78.26;100077.50;6136289;28;20532;-64
2021/11/03 05:34:51;;;;;;;13.13;11.73;;;;;;;8.14;77.28;100077.97;6141124;29;20215;-62
2021/11/03 05:38:12;;;;;;;12.43;11.10;;;;;;;8.25;76.25;100065.75;6138677;28;20586;-63
2021/11/03 05:41:37;;;;;;;13.83;11.73;;;;;;;8.10;76.21;100077.13;6140864;28;20231;-63
2021/11/03 05:44:58;;;;;;;13.63;12.30;;;;;;;7.69;77.89;100079.25;6139288;28;20617;-63
2021/11/03 05:48:28;;;;;;;13.17;11.90;;;;;;;8.06;76.31;100073.75;6138209;28;20231;-63
2021/11/03 05:51:52;;;;;;;13.10;11.80;;;;;;;8.13;76.47;100081.47;6138577;28;20637;-62
2021/11/03 05:55:13;;;;;;;11.93;10.73;;;;;;;7.81;77.02;100087.81;6139881;28;20227;-63
2021/11/03 05:58:35;;;;;;;13.40;12.07;;;;;;;7.68;76.84;100084.47;6137580;28;20231;-63
2021/11/03 06:01:56;;;;;;;13.13;11.83;;;;;;;7.80;77.84;100091.28;6137741;28;20621;-63
2021/11/03 06:05:19;;;;;;;15.07;13.20;;;;;;;7.92;76.98;100085.13;6141627;28;20208;-63
2021/11/03 06:08:40;;;;;;;15.90;13.37;;;;;;;8.34;75.96;100085.56;6137990;28;20593;-63
2021/11/03 06:12:01;;;;;;;12.00;10.77;;;;;;;8.11;76.07;100091.00;6137072;28;20262;-62
2021/11/03 06:15:22;;;;;;;12.37;11.07;;;;;;;7.97;75.77;100099.75;6140780;28;20239;-62
2021/11/03 06:18:44;;;;;;;13.90;12.50;;;;;;;7.56;77.43;100108.78;6136311;28;21493;-62
2021/11/03 06:22:06;;;;;;;15.60;14.00;;;;;;;7.42;78.21;100116.63;6139873;28;20231;-63
2021/11/03 06:25:28;;;;;;;15.77;12.73;;;;;;;7.80;77.02;100112.88;6137793;29;20215;-62
2021/11/03 06:28:49;;;;;;;14.87;12.23;;;;;;;7.55;77.76;100125.19;6135779;28;20318;-63
2021/11/03 06:32:11;;;;;;;16.60;13.50;;;;;;;7.62;77.13;100129.44;6138227;28;20239;-63
2021/11/03 06:35:36;;;;;;;16.67;13.87;;;;;;;7.10;79.04;100145.34;6138518;28;20589;-61
2021/11/03 06:38:58;;;;;;;18.40;13.70;;;;;;;7.25;78.93;100141.78;6135331;28;20231;-63
2021/11/03 06:42:19;;;;;;;15.40;13.83;;;;;;;7.48;77.87;100141.63;6136518;28;20373;-62
2021/11/03 06:45:41;;;;;;;15.27;13.67;;;;;;;7.24;77.65;100146.09;6129169;28;20203;-62
2021/11/03 06:49:03;;;;;;;15.43;13.87;;;;;;;7.16;78.73;100155.66;6132326;28;20200;-62
2021/11/03 06:52:24;;;;;;;16.47;14.77;;;;;;;7.51;77.72;100152.00;6132515;28;20278;-63
2021/11/03 06:55:46;;;;;;;17.80;15.07;;;;;;;7.60;77.01;100158.81;6131903;28;20215;-63
2021/11/03 06:59:08;;;;;;;14.97;12.80;;;;;;;7.76;76.46;100157.00;6133935;28;20228;-63
2021/11/03 07:02:28;;;;;;;25.97;16.67;;;;;;;7.96;75.44;100149.88;6133445;28;20244;-64
2021/11/03 07:05:50;;;;;;;22.50;13.47;;;;;;;8.13;74.28;100147.16;6132438;28;20255;-62
2021/11/03 07:09:11;;;;;;;15.20;13.63;;;;;;;8.32;73.69;100153.00;6135582;28;20192;-62
2021/11/03 07:12:34;;;;;;;15.03;11.83;;;;;;;8.50;73.25;100156.31;6135279;28;20322;-63
2021/11/03 07:15:56;;;;;;;24.60;14.23;;;;;;;8.18;73.56;100154.88;6132133;28;20235;-61
2021/11/03 07:19:16;;;;;;;16.07;13.63;;;;;;;8.28;73.75;100161.72;6134294;28;20219;-62
2021/11/03 07:22:37;;;;;;;27.17;15.07;;;;;;;8.09;74.25;100156.69;6133886;28;20235;-62
2021/11/03 07:25:59;;;;;;;14.87;12.53;;;;;;;8.17;73.89;100168.72;6131052;28;20799;-63
2021/11/03 07:29:22;;;;;;;17.93;15.13;;;;;;;8.54;72.63;100170.97;6132744;28;20235;-63
2021/11/03 07:32:43;;;;;;;16.73;14.33;;;;;;;7.98;74.46;100178.41;6132958;28;20239;-62
2021/11/03 07:36:06;;;;;;;19.47;16.57;;;;;;;8.35;73.55;100181.50;6128988;28;20521;-62
2021/11/03 07:39:27;;;;;;;31.37;19.37;;;;;;;8.57;72.67;100183.91;6129840;28;20216;-61
2021/11/03 07:42:48;;;;;;;27.17;16.27;;;;;;;8.85;71.58;100184.47;6134675;28;20624;-63
2021/11/03 07:46:12;;;;;;;15.40;13.73;;;;;;;8.47;71.99;100178.84;6130813;28;20231;-62
2021/11/03 07:49:33;;;;;;;16.80;15.17;;;;;;;9.17;71.03;100176.28;6136884;28;20211;-61
2021/11/03 07:52:54;;;;;;;20.90;18.33;;;;;;;8.79;70.94;100176.75;6131237;28;20556;-61
2021/11/03 07:56:21;;;;;;;16.47;14.77;;;;;;;8.82;71.14;100181.88;6128846;28;20542;-60
2021/11/03 07:59:42;;;;;;;17.87;15.73;;;;;;;9.17;70.22;100185.78;6132995;28;21712;-60
2021/11/03 08:03:05;;;;;;;18.47;16.57;;;;;;;8.96;70.38;100189.53;6132718;28;20657;-61
2021/11/03 08:06:26;;;;;;;18.93;17.03;;;;;;;9.33;69.31;100194.25;6132935;28;20231;-62
2021/11/03 08:09:48;;;;;;;18.87;16.50;;;;;;;8.87;70.48;100199.13;6132675;28;20211;-61
2021/11/03 08:13:13;;;;;;;17.60;15.83;;;;;;;8.26;73.39;100210.16;6134543;28;20325;-59
2021/11/03 08:16:42;;;;;;;19.43;17.47;;;;;;;8.26;73.24;100202.38;6134413;28;20287;-60
2021/11/03 08:20:10;;;;;;;21.43;17.07;;;;;;;8.08;74.11;100211.16;6136679;28;20231;-61
2021/11/03 08:23:32;;;;;;;17.70;15.00;;;;;;;8.34;73.08;100210.94;6134857;28;20616;-60
2021/11/03 08:26:55;;;;;;;18.63;16.60;;;;;;;8.11;73.74;100210.28;6132286;28;20632;-60
2021/11/03 08:30:17;;;;;;;25.00;21.33;;;;;;;7.93;75.35;100212.16;6131050;28;20665;-61
2021/11/03 08:33:42;;;;;;;30.30;23.90;;;;;;;7.81;75.54;100207.03;6131910;28;20656;-61
2021/11/03 08:37:08;;;;;;;28.10;23.53;;;;;;;7.88;75.46;100212.19;6135668;28;20235;-61
2021/11/03 08:40:30;;;;;;;36.77;27.83;;;;;;;7.72;76.25;100226.13;6133699;29;20215;-60
2021/11/03 08:43:51;;;;;;;34.97;25.37;;;;;;;7.88;75.78;100230.31;6130033;28;20226;-59
2021/11/03 08:47:12;;;;;;;33.57;26.80;;;;;;;7.84;75.99;100232.97;6131619;28;20311;-61
2021/11/03 08:50:35;;;;;;;36.03;27.57;;;;;;;7.81;76.23;100238.16;6135128;28;20203;-61
2021/11/03 08:53:59;;;;;;;42.83;30.23;;;;;;;7.84;76.66;100244.19;6134163;28;20231;-61
2021/11/03 08:57:21;;;;;;;36.77;27.77;;;;;;;8.28;74.41;100239.53;6131974;28;20314;-60
2021/11/03 09:00:44;;;;;;;35.53;25.90;;;;;;;8.87;72.98;100237.22;6132939;28;20663;-59
2021/11/03 09:04:07;;;;;;;44.73;30.10;;;;;;;7.76;76.33;100247.72;6132549;28;20589;-59
2021/11/03 09:07:28;;;;;;;45.50;30.37;;;;;;;7.26;79.03;100247.13;6128297;28;20235;-61
2021/11/03 09:10:53;;;;;;;41.17;31.30;;;;;;;8.20;76.42;100233.53;6132808;28;20219;-61
2021/11/03 09:14:14;;;;;;;40.43;30.33;;;;;;;8.33;75.32;100222.19;6132103;28;20231;-60
2021/11/03 09:17:35;;;;;;;40.80;33.80;;;;;;;7.81;76.99;100220.00;6136209;28;20259;-61
2021/11/03 09:20:57;;;;;;;39.13;29.63;;;;;;;8.46;74.74;100223.81;6133146;28;20258;-62
2021/11/03 09:24:19;;;;;;;38.60;30.03;;;;;;;8.66;74.35;100222.75;6137199;28;20282;-61
2021/11/03 09:27:42;;;;;;;37.03;28.17;;;;;;;8.76;74.32;100223.50;6135562;28;20231;-62
2021/11/03 09:31:06;;;;;;;38.13;27.27;;;;;;;8.28;75.33;100223.97;6131312;28;20242;-60
2021/11/03 09:34:26;;;;;;;34.43;27.43;;;;;;;8.28;76.14;100218.78;6135265;28;20310;-60
2021/11/03 09:37:47;;;;;;;30.40;25.10;;;;;;;8.68;74.70;100215.81;6131300;28;20642;-59
2021/11/03 09:41:18;;;;;;;30.63;26.70;;;;;;;8.90;73.44;100215.56;6134957;28;20751;-58
2021/11/03 09:44:43;;;;;;;35.90;27.27;;;;;;;8.95;73.07;100212.03;6135759;28;20211;-58
2021/11/03 09:48:15;;;;;;;34.60;27.37;;;;;;;8.87;73.07;100209.53;6129338;28;20235;-61
2021/11/03 09:51:37;;;;;;;37.83;29.60;;;;;;;9.40;71.81;100212.34;6134411;28;20231;-60
2021/11/03 09:55:08;;;;;;;33.67;27.27;;;;;;;9.06;71.92;100209.31;6133124;28;20585;-59
2021/11/03 09:58:40;;;;;;;33.63;27.90;;;;;;;9.20;71.77;100211.72;6135727;28;20239;-57
2021/11/03 10:02:20;;;;;;;34.17;28.30;;;;;;;8.74;73.54;100223.50;6134191;28;20236;-59
2021/11/03 10:05:47;;;;;;;32.50;27.07;;;;;;;8.79;73.91;100221.75;6133995;28;20219;-63
2021/11/03 10:09:08;;;;;;;33.23;25.07;;;;;;;8.25;74.66;100221.38;6135645;29;20680;-62
2021/11/03 10:12:29;;;;;;;35.57;28.77;;;;;;;7.74;77.97;100215.75;6134382;28;21306;-61
2021/11/03 10:15:56;;;;;;;37.63;33.55;;;;;;;8.12;77.23;100219.78;6132027;28;20833;-60
2021/11/03 10:19:32;;;;;;;35.30;28.97;;;;;;;8.02;76.68;100221.59;6140330;29;20223;-60
2021/11/03 10:23:06;;;;;;;31.10;27.37;;;;;;;8.17;77.36;100223.19;6139631;28;20640;-60
2021/11/03 10:26:31;;;;;;;30.10;25.77;;;;;;;8.26;77.10;100218.78;6135015;28;20620;-59
2021/11/03 10:29:55;;;;;;;28.50;25.23;;;;;;;8.97;75.23;100219.81;6140519;29;20215;-60
2021/11/03 10:33:22;;;;;;;27.67;22.73;;;;;;;11.45;69.72;100221.69;6137082;28;20239;-59
2021/11/03 10:36:46;;;;;;;24.40;20.77;;;;;;;10.68;65.65;100220.66;6136721;28;20239;-60
2021/11/03 10:40:25;;;;;;;22.23;19.33;;;;;;;12.76;60.90;100214.13;6138542;29;20230;-61
2021/11/03 10:44:03;;;;;;;22.70;20.30;;;;;;;14.98;52.04;100214.09;6131837;28;20231;-61
2021/11/03 10:47:25;;;;;;;21.43;19.00;;;;;;;18.44;43.03;100199.81;6131082;28;20519;-61
2021/11/03 10:51:02;;;;;;;18.95;17.10;;;;;;;20.48;38.17;100199.13;6133179;28;20208;-63
2021/11/03 10:54:38;;;;;;;20.08;18.08;;;;;;;21.17;35.98;100197.53;6135561;28;20215;-62
2021/11/03 10:58:06;;;;;;;20.90;18.83;;;;;;;19.39;40.48;100199.16;6129663;28;20227;-62
2021/11/03 11:01:31;;;;;;;22.88;20.38;;;;;;;13.33;53.10;100216.91;6129986;28;20303;-62
2021/11/03 11:04:53;;;;;;;21.85;19.70;;;;;;;14.19;51.41;100227.28;6134396;28;20211;-61
2021/11/03 11:08:19;;;;;;;19.83;17.70;;;;;;;15.53;48.15;100214.63;6129303;28;20247;-61
2021/11/03 11:11:47;;;;;;;17.45;15.45;;;;;;;16.85;45.62;100208.31;6134925;28;21494;-61
2021/11/03 11:15:25;;;;;;;18.00;16.02;;;;;;;17.16;43.93;100207.75;6136106;28;20207;-62
2021/11/03 11:18:55;;;;;;;21.45;16.98;;;;;;;15.28;48.73;100206.84;6135056;28;20199;-61
2021/11/03 11:22:35;;;;;;;17.25;15.55;;;;;;;16.06;46.89;100203.75;6133382;28;20239;-61
2021/11/03 11:26:03;;;;;;;19.60;17.63;;;;;;;18.16;41.93;100200.34;6135308;28;20621;-62
2021/11/03 11:29:33;;;;;;;17.95;16.15;;;;;;;15.69;46.96;100199.97;6138522;28;20214;-61
2021/11/03 11:33:01;;;;;;;18.00;16.20;;;;;;;14.70;48.86;100200.22;6135570;28;20230;-60
2021/11/03 11:36:34;;;;;;;18.77;16.03;;;;;;;13.33;53.89;100209.06;6136301;28;20231;-60
2021/11/03 11:40:02;;;;;;;19.00;16.23;;;;;;;12.04;57.98;100199.50;6136327;28;20234;-60
2021/11/03 11:43:34;;;;;;;20.83;18.83;;;;;;;12.27;57.54;100198.91;6138411;28;20247;-60
2021/11/03 11:47:02;;;;;;;19.10;17.10;;;;;;;12.32;57.68;100202.28;6135744;28;20684;-61
2021/11/03 11:50:29;;;;;;;16.73;15.13;;;;;;;11.70;60.17;100193.31;6135327;28;20203;-61
2021/11/03 11:54:19;;;;;;;17.37;15.67;;;;;;;11.58;59.71;100191.84;6137101;28;20231;-61
2021/11/03 11:57:42;;;;;;;16.33;14.60;;;;;;;11.49;61.25;100186.84;6130735;28;20640;-62
2021/11/03 12:01:29;;;;;;;17.40;15.70;;;;;;;12.26;58.58;100187.63;6130798;28;20236;-61
2021/11/03 12:05:23;;;;;;;18.67;16.77;;;;;;;11.21;61.34;100197.88;6134274;28;20506;-61
2021/11/03 12:09:20;;;;;;;20.50;18.40;;;;;;;11.68;61.28;100183.81;6134717;28;20633;-63
2021/11/03 12:13:16;;;;;;;20.50;18.30;;;;;;;12.09;59.32;100182.81;6133745;28;20246;-62
2021/11/03 12:16:54;;;;;;;20.47;18.47;;;;;;;12.93;56.54;100181.44;6132962;28;20258;-62
2021/11/03 12:20:54;;;;;;;20.40;18.23;;;;;;;12.40;57.99;100185.50;6132850;29;20215;-62
2021/11/03 12:24:40;;;;;;;16.33;14.60;;;;;;;12.67;60.19;100183.03;6131019;28;20231;-63
2021/11/03 12:28:41;;;;;;;20.67;18.17;;;;;;;12.75;63.67;100188.91;6130932;28;20223;-63
2021/11/03 12:32:04;;;;;;;18.87;16.87;;;;;;;11.51;60.38;100187.66;6129089;28;20290;-63
2021/11/03 12:35:50;;;;;;;20.70;16.67;;;;;;;12.20;59.57;100179.94;6135591;28;20215;-63
2021/11/03 12:39:12;;;;;;;19.00;16.50;;;;;;;12.71;57.11;100178.59;6135253;28;20590;-63
2021/11/03 12:42:45;;;;;;;21.27;19.07;;;;;;;12.33;58.00;100176.13;6135817;28;20235;-64
2021/11/03 12:46:17;;;;;;;23.93;17.73;;;;;;;12.63;57.74;100183.16;6130518;28;20325;-63
2021/11/03 12:49:38;;;;;;;20.53;18.33;;;;;;;11.98;58.73;100177.88;6133023;28;20211;-63
2021/11/03 12:53:10;;;;;;;20.20;18.17;;;;;;;12.32;57.72;100187.44;6136067;28;20366;-63
2021/11/03 12:56:34;;;;;;;19.10;17.20;;;;;;;12.76;57.10;100177.56;6124285;28;20246;-61
2021/11/03 13:00:00;;;;;;;22.07;19.83;;;;;;;12.61;57.58;100178.84;6134289;28;20204;-63
2021/11/03 13:03:24;;;;;;;20.83;18.60;;;;;;;12.02;58.48;100186.50;6127491;28;20325;-62
2021/11/03 13:06:51;;;;;;;19.10;17.10;;;;;;;12.63;57.98;100183.16;6128742;28;20254;-62
2021/11/03 13:10:21;;;;;;;20.17;18.10;;;;;;;11.74;59.89;100181.06;6125785;28;20232;-63
2021/11/03 13:13:46;;;;;;;18.63;16.73;;;;;;;11.73;61.98;100177.59;6132034;28;20222;-63
2021/11/03 13:17:07;;;;;;;18.17;16.23;;;;;;;11.91;59.98;100176.31;6128039;28;20326;-63
2021/11/03 13:20:32;;;;;;;18.90;17.10;;;;;;;11.57;61.32;100173.63;6131713;28;20531;-61
2021/11/03 13:23:57;;;;;;;18.57;16.67;;;;;;;12.41;59.78;100166.31;6129918;28;20602;-61
2021/11/03 13:27:23;;;;;;;15.27;13.73;;;;;;;11.94;61.07;100170.16;6132328;28;20239;-64
2021/11/03 13:30:43;;;;;;;17.37;15.57;;;;;;;12.27;58.60;100178.03;6131833;28;20203;-62
2021/11/03 13:34:20;;;;;;;18.03;16.10;;;;;;;12.47;58.49;100180.13;6126276;28;20499;-62
2021/11/03 13:37:53;;;;;;;17.33;15.53;;;;;;;12.72;57.62;100175.09;6132000;28;20571;-61
2021/11/03 13:41:25;;;;;;;16.80;14.97;;;;;;;12.33;58.54;100172.63;6133504;28;20243;-62
2021/11/03 13:44:59;;;;;;;18.90;16.60;;;;;;;11.94;59.59;100175.38;6130389;28;20203;-62
2021/11/03 13:48:27;;;;;;;16.97;15.07;;;;;;;12.31;58.64;100180.53;6128322;28;20342;-63
2021/11/03 13:51:54;;;;;;;18.50;16.60;;;;;;;12.26;58.19;100181.53;6132299;28;20230;-61
2021/11/03 13:55:16;;;;;;;21.97;16.43;;;;;;;11.76;59.54;100187.09;6141268;28;20685;-62
2021/11/03 13:58:42;;;;;;;16.97;14.67;;;;;;;11.73;60.10;100190.66;6139322;28;20227;-60
2021/11/03 14:02:37;;;;;;;18.33;15.30;;;;;;;11.40;61.40;100185.31;6136859;28;20235;-61
2021/11/03 14:06:10;;;;;;;18.23;15.77;;;;;;;11.95;59.59;100188.41;6137081;28;20812;-62
2021/11/03 14:09:31;;;;;;;16.93;14.97;;;;;;;11.71;59.70;100182.00;6136247;28;20207;-63
2021/11/03 14:12:52;;;;;;;15.73;14.23;;;;;;;12.06;59.03;100179.44;6134362;28;20227;-63
2021/11/03 14:16:18;;;;;;;15.70;13.90;;;;;;;12.11;58.95;100180.19;6131220;28;20545;-62
2021/11/03 14:19:46;;;;;;;16.37;14.67;;;;;;;12.09;58.52;100179.38;6140866;28;20211;-62
2021/11/03 14:23:19;;;;;;;15.67;13.83;;;;;;;11.90;58.42;100174.59;6136302;28;20239;-63
2021/11/03 14:26:40;;;;;;;15.17;13.57;;;;;;;12.28;58.12;100175.38;6133690;28;20231;-64
2021/11/03 14:30:02;;;;;;;15.37;12.97;;;;;;;12.43;57.67;100181.09;6140141;28;20215;-62
2021/11/03 14:33:25;;;;;;;14.27;12.80;;;;;;;12.17;58.10;100182.63;6135558;28;20638;-63
2021/11/03 14:36:48;;;;;;;16.87;14.33;;;;;;;11.67;59.74;100184.69;6130065;28;20232;-62
2021/11/03 14:40:16;;;;;;;17.97;16.17;;;;;;;11.79;59.88;100187.88;6132066;28;20239;-61
2021/11/03 14:43:38;;;;;;;19.90;16.87;;;;;;;12.05;58.91;100178.59;6132823;28;20316;-63
2021/11/03 14:47:03;;;;;;;17.67;15.80;;;;;;;11.99;58.99;100182.19;6135881;28;20235;-63
2021/11/03 14:50:27;;;;;;;18.57;16.67;;;;;;;11.62;60.10;100193.50;6101238;28;20199;-62
2021/11/03 14:53:50;;;;;;;19.30;16.93;;;;;;;11.66;60.76;100183.84;6136990;28;20235;-62
2021/11/03 14:57:12;;;;;;;22.57;17.03;;;;;;;11.29;62.07;100195.13;6128384;28;20239;-62
2021/11/03 15:00:36;;;;;;;20.40;16.97;;;;;;;11.74;61.00;100188.88;6124309;28;20207;-61
2021/11/03 15:04:03;;;;;;;20.90;18.70;;;;;;;11.67;60.87;100187.31;6123087;28;20204;-62
2021/11/03 15:07:24;;;;;;;18.10;16.20;;;;;;;11.55;60.97;100199.72;6125955;28;20617;-61
2021/11/03 15:10:50;;;;;;;20.80;16.00;;;;;;;11.71;60.76;100200.25;6118286;28;20239;-61
2021/11/03 15:14:11;;;;;;;21.43;17.70;;;;;;;11.31;61.59;100202.91;6124877;28;20211;-61
2021/11/03 15:17:32;;;;;;;19.23;16.63;;;;;;;11.35;61.91;100208.00;6135537;28;20521;-61
2021/11/03 15:20:54;;;;;;;19.33;17.33;;;;;;;11.18;62.19;100210.13;6129473;28;20437;-61
2021/11/03 15:24:16;;;;;;;20.00;17.97;;;;;;;10.84;64.06;100211.69;6126525;28;20623;-61
2021/11/03 15:27:38;;;;;;;19.13;17.17;;;;;;;10.82;64.08;100223.88;6137232;28;20634;-62
2021/11/03 15:31:02;;;;;;;22.93;18.13;;;;;;;11.09;63.27;100216.41;6137106;28;20258;-61
2021/11/03 15:34:25;;;;;;;22.30;19.03;;;;;;;11.35;62.35;100215.81;6133496;28;20200;-61
2021/11/03 15:37:47;;;;;;;19.07;17.03;;;;;;;11.39;62.63;100214.03;6130969;28;20278;-61